createdAt,value
2022-09-30T00:01:39.891Z,43.03
2022-09-30T00:06:42.937Z,38.42
2022-09-30T00:11:46.450Z,34.60
2022-09-30T00:16:49.507Z,36.60
2022-09-30T00:21:52.084Z,33.63
2022-09-30T00:26:56.299Z,34.08
2022-09-30T00:31:58.787Z,34.22
2022-09-30T00:37:03.093Z,34.08
2022-09-30T00:42:10.227Z,32.10
2022-09-30T00:47:31.538Z,33.67
2022-09-30T00:52:34.226Z,37.35
2022-09-30T00:57:36.825Z,37.23
2022-09-30T01:02:39.184Z,33.77
2022-09-30T01:07:42.351Z,34.83
2022-09-30T01:18:09.386Z,35.58
2022-09-30T01:23:18.729Z,28.70
2022-09-30T01:28:39.442Z,28.05
2022-09-30T01:33:59.129Z,28.00
2022-09-30T01:39:12.717Z,28.38
2022-09-30T01:44:38.871Z,28.40
2022-09-30T01:49:47.286Z,28.02
2022-09-30T01:55:14.227Z,30.80
2022-09-30T02:00:17.683Z,31.08
2022-09-30T02:05:37.265Z,27.70
2022-09-30T02:10:59.667Z,32.95
2022-09-30T02:16:13.184Z,30.40
2022-09-30T02:21:20.397Z,32.17
2022-09-30T02:26:25.394Z,34.65
2022-09-30T02:31:28.558Z,30.30
2022-09-30T02:36:35.102Z,29.50
2022-09-30T02:41:44.627Z,30.30
2022-09-30T02:46:55.614Z,28.67
2022-09-30T02:52:16.281Z,31.80
2022-09-30T02:57:28.216Z,30.65
2022-09-30T03:02:30.510Z,30.00
2022-09-30T03:07:34.388Z,31.20
2022-09-30T03:12:48.859Z,31.55
2022-09-30T03:17:57.317Z,33.78
2022-09-30T03:23:18.187Z,34.67
2022-09-30T03:28:39.156Z,32.65
2022-09-30T03:34:18.785Z,31.33
2022-09-30T03:39:53.803Z,31.48
2022-09-30T03:45:03.352Z,31.63
2022-09-30T03:50:08.496Z,31.85
2022-09-30T03:55:11.900Z,32.65
2022-09-30T04:00:15.620Z,30.10
2022-09-30T04:05:18.484Z,35.83
2022-09-30T04:10:20.830Z,33.57
2022-09-30T04:15:24.523Z,30.02
2022-09-30T04:20:26.838Z,29.75
2022-09-30T04:25:29.314Z,25.95
2022-09-30T04:30:37.967Z,31.55
2022-09-30T04:35:40.826Z,30.85
2022-09-30T04:40:45.575Z,30.83
2022-09-30T04:45:48.468Z,31.15
2022-09-30T04:50:51.143Z,32.90
2022-09-30T04:56:00.026Z,30.85
2022-09-30T05:01:04.847Z,30.65
2022-09-30T05:06:08.368Z,29.90
2022-09-30T05:16:14.331Z,31.75
2022-09-30T05:21:20.829Z,31.77
2022-09-30T05:26:23.137Z,27.15
2022-09-30T05:31:27.747Z,29.77
2022-09-30T05:36:30.271Z,33.38
2022-09-30T05:41:33.162Z,35.57
2022-09-30T05:46:35.619Z,33.08
2022-09-30T05:51:39.228Z,30.75
2022-09-30T05:56:41.449Z,55.80
2022-09-30T06:01:43.812Z,40.92
2022-09-30T06:06:47.879Z,35.40
2022-09-30T06:11:50.215Z,29.98
2022-09-30T06:16:52.997Z,33.20
2022-09-30T06:21:55.246Z,33.20
2022-09-30T06:26:57.806Z,30.48
2022-09-30T06:32:00.133Z,31.33
2022-09-30T06:37:02.905Z,28.92
2022-09-30T06:42:15.759Z,27.37
2022-09-30T06:47:25.709Z,27.27
2022-09-30T06:52:28.494Z,26.42
2022-09-30T06:57:32.198Z,27.52
2022-09-30T07:02:35.038Z,27.10
2022-09-30T07:07:37.359Z,27.63
2022-09-30T07:12:39.648Z,25.48
2022-09-30T07:17:43.557Z,26.58
2022-09-30T07:22:46.521Z,28.75
2022-09-30T07:27:48.756Z,29.90
2022-09-30T07:32:51.109Z,27.75
2022-09-30T07:37:53.651Z,31.77
2022-09-30T07:42:58.826Z,30.60
2022-09-30T07:48:02.280Z,30.73
2022-09-30T07:58:08.220Z,30.40
2022-09-30T08:03:10.590Z,29.42
2022-09-30T08:08:13.493Z,28.88
2022-09-30T08:13:16.982Z,29.40
2022-09-30T08:18:19.263Z,26.57
2022-09-30T08:23:42.996Z,30.35
2022-09-30T08:28:49.331Z,28.38
2022-09-30T08:33:51.762Z,27.35
2022-09-30T08:38:55.755Z,24.80
2022-09-30T08:44:19.835Z,23.67
2022-09-30T08:49:45.023Z,23.08
2022-09-30T08:54:52.014Z,22.38
2022-09-30T09:32:15.240Z,18.17
2022-09-30T09:50:44.165Z,12.98
2022-09-30T09:55:49.983Z,16.02
2022-09-30T10:00:52.772Z,14.60
2022-09-30T10:06:02.336Z,12.13
2022-09-30T10:17:42.608Z,12.80
2022-09-30T10:35:31.362Z,11.45
2022-09-30T11:13:40.262Z,10.45
2022-09-30T11:24:44.679Z,10.98
2022-09-30T11:30:08.875Z,9.07
2022-09-30T11:35:36.303Z,10.32
2022-09-30T11:40:41.784Z,10.48
2022-09-30T12:04:57.965Z,8.30
2022-09-30T12:10:15.177Z,7.30
2022-09-30T12:15:52.784Z,15.05
2022-09-30T12:21:02.689Z,7.05
2022-09-30T12:26:11.302Z,5.95
2022-09-30T12:31:30.732Z,6.00
2022-09-30T12:36:57.729Z,5.57
2022-09-30T12:42:26.980Z,5.40
2022-09-30T12:48:06.063Z,6.47
2022-09-30T12:53:46.620Z,5.03
2022-09-30T12:58:54.395Z,5.10
2022-09-30T13:04:08.718Z,4.22
2022-09-30T13:09:16.701Z,4.40
2022-09-30T13:14:44.316Z,4.35
2022-09-30T13:26:05.744Z,5.93
2022-09-30T13:31:21.797Z,7.30
2022-09-30T13:36:33.766Z,5.30
2022-09-30T13:41:37.450Z,4.00
2022-09-30T13:46:52.805Z,4.22
2022-09-30T13:51:55.273Z,4.32
2022-09-30T13:56:58.932Z,7.47
2022-09-30T14:02:22.561Z,7.10
2022-09-30T14:07:43.768Z,6.35
2022-09-30T14:13:21.179Z,5.78
2022-09-30T14:18:30.899Z,4.60
2022-09-30T14:23:33.336Z,4.72
2022-09-30T14:28:43.866Z,4.40
2022-09-30T14:33:49.243Z,6.00
2022-09-30T14:38:54.826Z,5.47
2022-09-30T14:44:08.305Z,4.90
2022-09-30T14:49:15.401Z,5.80
2022-09-30T14:54:20.597Z,4.65
2022-09-30T14:59:33.566Z,4.22
2022-09-30T15:04:39.573Z,7.13
2022-09-30T15:09:44.448Z,6.53
2022-09-30T15:14:49.544Z,15.18
2022-09-30T15:19:52.064Z,24.08
2022-09-30T15:24:55.700Z,16.63
2022-09-30T15:30:05.484Z,11.48
2022-09-30T15:35:20.850Z,8.90
2022-09-30T15:40:43.267Z,9.07
2022-09-30T15:45:58.957Z,8.68
2022-09-30T15:51:41.324Z,10.50
2022-09-30T15:56:46.407Z,12.65
2022-09-30T16:01:53.007Z,11.45
2022-09-30T16:07:18.791Z,12.77
2022-09-30T16:12:24.662Z,13.63
2022-09-30T16:17:32.859Z,13.25
2022-09-30T16:22:42.004Z,12.50
2022-09-30T16:27:45.821Z,9.55
2022-09-30T16:32:51.795Z,8.07
2022-09-30T16:38:06.541Z,7.35
2022-09-30T16:43:11.896Z,6.53
2022-09-30T16:48:16.847Z,6.90
2022-09-30T16:53:20.611Z,6.93
2022-09-30T16:58:24.489Z,6.78
2022-09-30T17:03:27.173Z,7.00
2022-09-30T17:08:30.641Z,6.75
2022-09-30T17:13:33.920Z,8.70
2022-09-30T17:18:36.561Z,8.95
2022-09-30T17:23:39.508Z,8.63
2022-09-30T17:28:42.063Z,9.35
2022-09-30T17:33:45.805Z,10.80
2022-09-30T17:38:53.631Z,10.60
2022-09-30T17:43:59.040Z,13.18
2022-09-30T17:49:02.585Z,13.25
2022-09-30T17:59:10.953Z,20.35
2022-09-30T18:04:13.802Z,20.40
2022-09-30T18:09:16.691Z,16.80
2022-09-30T18:14:19.526Z,20.98
2022-09-30T18:19:23.756Z,35.75
2022-09-30T18:24:45.360Z,31.05
2022-09-30T18:29:49.524Z,22.45
2022-09-30T18:34:54.650Z,18.38
2022-09-30T18:39:58.395Z,16.50
2022-09-30T18:45:00.990Z,16.10
2022-09-30T18:50:04.189Z,14.47
2022-09-30T19:00:11.861Z,12.90
2022-09-30T19:05:18.079Z,12.85
2022-09-30T19:10:21.610Z,12.90
2022-09-30T19:20:28.516Z,14.13
2022-09-30T19:25:31.342Z,14.90
2022-09-30T19:30:41.824Z,14.60
2022-09-30T19:35:51.029Z,15.63
2022-09-30T19:40:56.275Z,14.85
2022-09-30T19:46:01.491Z,15.38
2022-09-30T19:51:09.543Z,15.65
2022-09-30T19:56:24.570Z,15.30
2022-09-30T20:01:32.117Z,14.20
2022-09-30T20:06:38.073Z,14.70
2022-09-30T20:11:40.910Z,14.43
2022-09-30T20:16:46.489Z,15.03
2022-09-30T20:21:50.275Z,16.42
2022-09-30T20:31:56.009Z,17.02
2022-09-30T20:36:59.063Z,16.67
2022-09-30T20:42:01.602Z,16.80
2022-09-30T20:47:04.117Z,18.05
2022-09-30T20:52:06.834Z,19.17
2022-09-30T20:57:09.185Z,19.80
2022-09-30T21:02:14.271Z,18.02
2022-09-30T21:07:16.776Z,19.70
2022-09-30T21:12:19.142Z,19.23
2022-09-30T21:17:21.438Z,19.90
2022-09-30T21:22:23.711Z,19.67
2022-09-30T21:27:25.965Z,21.23
2022-09-30T21:32:29.107Z,20.85
2022-09-30T21:37:31.603Z,21.35
2022-09-30T21:42:33.962Z,20.35
2022-09-30T21:47:36.375Z,22.48
2022-09-30T21:52:39.322Z,22.23
2022-09-30T21:57:41.831Z,21.85
2022-09-30T22:02:44.143Z,20.98
2022-09-30T22:07:47.692Z,22.08
2022-09-30T22:12:51.247Z,22.02
2022-09-30T22:22:55.864Z,20.05
2022-09-30T22:27:58.274Z,21.60
2022-09-30T22:33:19.277Z,21.50
2022-09-30T22:38:22.142Z,21.75
2022-09-30T22:43:24.633Z,21.95
2022-09-30T22:48:28.957Z,22.30
2022-09-30T22:53:31.213Z,23.05
2022-09-30T22:58:37.091Z,23.15
2022-09-30T23:03:39.397Z,24.67
2022-09-30T23:08:41.902Z,22.38
2022-09-30T23:13:46.446Z,23.23
2022-09-30T23:18:48.731Z,23.13
2022-09-30T23:23:51.002Z,23.90
2022-09-30T23:29:00.807Z,22.88
2022-09-30T23:34:03.823Z,24.05
2022-09-30T23:39:18.351Z,23.05
2022-09-30T23:44:20.733Z,23.00
2022-09-30T23:49:22.969Z,23.58
2022-09-30T23:54:25.195Z,23.92
2022-09-30T23:59:28.761Z,22.20
